Brownsville South Padre Island International Airport Brownsville US
ICAO: KBRO
IATA: BRO
Category: Medium
Scheduled Services: Yes

Elevation: 22 ft
TransAlt. 18000 ft.

Airport Communications:
VALLEY APP/DEP:119.5
ATIS:128.55
CTAF:118.9
GND:121.9
SAN ANGELO RDO:122.3
TWR:118.9
UNICOM:122.95

KBRO Zoom In..

If you have problems with the map follow the link
https://www.worldairports.se/pages/airport.php?
ICAO=KBRO

Runways:

(A) RW 13L length 3000 ft width 75 ft
---- / hdg 128

(B) RW 13R length 7399 ft width 150 ft
ILS 110.30 / hdg 128

(C) RW 17 length 6000 ft width 150 ft
---- / hdg 175

(D) RW 31L length 7399 ft width 150 ft
---- / hdg 308

(E) RW 31R length 3000 ft width 75 ft
---- / hdg 308

(F) RW 35 length 6000 ft width 150 ft
---- / hdg 355

Location; KBRO
Day. 21 / Time. 20.53 Zulu
* Altimeter: 30.30
* Temperature: 19° c. 66.2°f.
* Wind from: 110° Speed 12 kn with Gusts up to 20 kn.
Dewpoint: 09° c.
Visibility: 10 Statute Miles.
Clouds: Scattered 3700 ft.
Clouds: Overcast 6000 ft.

KBRO 212053Z 11012G20KT 10SM SCT037 OVC060 19/09 A3030 RMK AO2 SLP259 T01890094 56030


Wind From 110°
Speed 12 kn.

 
 
jpsmedia worldairports.se 2020   terms of use